createdAt,value
2022-08-17T00:01:51.379Z,26.03
2022-08-17T00:04:19.465Z,26.02
2022-08-17T00:06:42.963Z,26.03
2022-08-17T00:09:10.079Z,26.08
2022-08-17T00:11:43.858Z,26.07
2022-08-17T00:14:27.102Z,26.04
2022-08-17T00:16:56.834Z,26.05
2022-08-17T00:19:23.098Z,26.02
2022-08-17T00:22:28.658Z,26.04
2022-08-17T00:24:31.023Z,25.99
2022-08-17T00:26:55.716Z,25.99
2022-08-17T00:29:19.629Z,25.98
2022-08-17T00:31:43.281Z,25.95
2022-08-17T00:34:08.807Z,25.90
2022-08-17T00:36:32.156Z,25.85
2022-08-17T00:38:55.543Z,25.92
2022-08-17T00:41:19.825Z,25.80
2022-08-17T00:43:46.719Z,25.84
2022-08-17T00:46:11.888Z,25.77
2022-08-17T00:48:35.436Z,25.75
2022-08-17T00:51:01.176Z,25.78
2022-08-17T00:53:24.677Z,25.74
2022-08-17T00:55:47.987Z,25.70
2022-08-17T00:58:11.254Z,25.62
2022-08-17T01:00:38.303Z,25.67
2022-08-17T01:03:03.162Z,25.75
2022-08-17T01:05:27.575Z,25.57
2022-08-17T01:07:52.186Z,25.61
2022-08-17T01:10:58.843Z,25.47
2022-08-17T01:12:58.728Z,25.30
2022-08-17T01:15:22.009Z,25.24
2022-08-17T01:17:47.100Z,25.25
2022-08-17T01:20:10.734Z,25.20
2022-08-17T01:22:35.375Z,25.30
2022-08-17T01:25:00.129Z,25.38
2022-08-17T01:27:23.384Z,25.44
2022-08-17T01:29:59.952Z,25.49
2022-08-17T01:32:23.309Z,25.54
2022-08-17T01:34:50.530Z,25.50
2022-08-17T01:37:14.521Z,25.41
2022-08-17T01:39:41.292Z,25.37
2022-08-17T01:42:06.769Z,25.23
2022-08-17T01:44:30.074Z,25.22
2022-08-17T01:46:53.575Z,25.19
2022-08-17T01:49:17.638Z,25.18
2022-08-17T01:51:41.477Z,25.18
2022-08-17T01:54:06.384Z,25.33
2022-08-17T01:56:31.078Z,25.26
2022-08-17T01:58:54.397Z,25.28
2022-08-17T02:01:17.891Z,25.30
2022-08-17T02:03:41.308Z,25.25
2022-08-17T02:06:27.595Z,25.03
2022-08-17T02:09:02.708Z,25.12
2022-08-17T02:11:26.706Z,25.09
2022-08-17T02:13:55.134Z,25.00
2022-08-17T02:16:25.639Z,25.01
2022-08-17T02:18:48.888Z,25.01
2022-08-17T02:21:12.157Z,24.94
2022-08-17T02:23:37.158Z,25.04
2022-08-17T02:26:00.721Z,24.92
2022-08-17T02:28:23.973Z,24.94
2022-08-17T02:31:01.181Z,24.90
2022-08-17T02:33:41.555Z,24.84
2022-08-17T02:36:05.803Z,24.81
2022-08-17T02:38:29.150Z,24.82
2022-08-17T02:40:52.337Z,24.89
2022-08-17T02:43:15.735Z,24.90
2022-08-17T02:45:38.998Z,24.91
2022-08-17T02:48:04.146Z,24.99
2022-08-17T02:50:27.378Z,24.98
2022-08-17T02:52:57.345Z,24.96
2022-08-17T02:55:26.469Z,24.92
2022-08-17T02:57:49.633Z,24.93
2022-08-17T03:00:18.077Z,25.00
2022-08-17T03:02:41.626Z,24.93
2022-08-17T03:05:07.273Z,24.86
2022-08-17T03:07:31.855Z,24.78
2022-08-17T03:09:55.518Z,24.81
2022-08-17T03:12:19.328Z,24.78
2022-08-17T03:14:42.852Z,24.86
2022-08-17T03:17:06.289Z,24.85
2022-08-17T03:19:29.620Z,24.83
2022-08-17T03:21:55.034Z,24.90
2022-08-17T03:24:18.806Z,25.04
2022-08-17T03:26:42.884Z,25.05
2022-08-17T03:29:06.242Z,25.12
2022-08-17T03:31:29.545Z,25.15
2022-08-17T03:33:52.874Z,25.26
2022-08-17T03:36:16.128Z,25.42
2022-08-17T03:38:40.817Z,25.40
2022-08-17T03:41:06.193Z,25.35
2022-08-17T03:43:31.832Z,25.34
2022-08-17T03:46:28.123Z,25.30
2022-08-17T03:49:12.732Z,25.40
2022-08-17T03:51:53.545Z,25.21
2022-08-17T03:54:35.799Z,25.09
2022-08-17T03:57:02.189Z,24.94
2022-08-17T03:59:25.454Z,24.82
2022-08-17T04:01:50.375Z,24.94
2022-08-17T04:04:16.401Z,25.00
2022-08-17T04:06:39.814Z,25.06
2022-08-17T04:09:03.022Z,24.99
2022-08-17T04:11:27.705Z,25.12
2022-08-17T04:13:51.054Z,25.11
2022-08-17T04:16:14.279Z,25.02
2022-08-17T04:18:37.546Z,25.07
2022-08-17T04:21:00.762Z,25.22
2022-08-17T04:23:28.274Z,25.16
2022-08-17T04:25:51.767Z,25.20
2022-08-17T04:28:16.582Z,25.20
2022-08-17T04:30:39.998Z,25.11
2022-08-17T04:33:10.022Z,25.16
2022-08-17T04:35:34.399Z,25.16
2022-08-17T04:37:58.034Z,25.14
2022-08-17T04:40:39.091Z,25.17
2022-08-17T04:43:03.671Z,25.18
2022-08-17T04:45:31.999Z,25.20
2022-08-17T04:47:55.401Z,25.21
2022-08-17T04:50:18.895Z,25.29
2022-08-17T04:52:46.685Z,25.46
2022-08-17T04:55:10.603Z,25.56
2022-08-17T04:57:39.388Z,25.45
2022-08-17T05:00:06.300Z,25.38
2022-08-17T05:02:32.103Z,25.42
2022-08-17T05:04:55.401Z,25.37
2022-08-17T05:07:23.070Z,25.32
2022-08-17T05:09:47.358Z,25.33
2022-08-17T05:12:10.727Z,25.35
2022-08-17T05:14:34.065Z,25.50
2022-08-17T05:16:57.389Z,25.55
2022-08-17T05:19:22.111Z,25.59
2022-08-17T05:21:45.649Z,25.58
2022-08-17T05:24:17.638Z,25.60
2022-08-17T05:26:52.391Z,25.70
2022-08-17T05:29:15.639Z,25.68
2022-08-17T05:31:39.021Z,25.66
2022-08-17T05:34:02.308Z,25.57
2022-08-17T05:36:42.266Z,25.58
2022-08-17T05:39:07.638Z,25.68
2022-08-17T05:41:30.857Z,25.69
2022-08-17T05:43:56.504Z,25.75
2022-08-17T05:46:21.542Z,25.66
2022-08-17T05:48:46.595Z,25.74
2022-08-17T05:51:37.594Z,25.70
2022-08-17T05:54:08.608Z,25.63
2022-08-17T05:56:39.461Z,25.67
2022-08-17T05:59:05.018Z,25.63
2022-08-17T06:01:36.392Z,25.57
2022-08-17T06:04:04.132Z,25.62
2022-08-17T06:06:35.496Z,25.68
2022-08-17T06:09:07.394Z,25.61
2022-08-17T06:11:35.323Z,25.60
2022-08-17T06:14:15.514Z,25.64
2022-08-17T06:16:40.155Z,25.67
2022-08-17T06:19:04.903Z,25.66
2022-08-17T06:21:31.965Z,25.62
2022-08-17T06:23:59.570Z,25.70
2022-08-17T06:26:27.489Z,25.75
2022-08-17T06:28:59.811Z,25.69
2022-08-17T06:31:29.320Z,25.84
2022-08-17T06:33:52.588Z,25.95
2022-08-17T06:36:26.474Z,26.01
2022-08-17T06:38:53.813Z,26.05
2022-08-17T06:41:19.782Z,25.98
2022-08-17T06:43:54.311Z,25.95
2022-08-17T06:46:20.841Z,25.94
2022-08-17T06:48:46.812Z,26.01
2022-08-17T06:51:15.541Z,26.09
2022-08-17T06:53:42.099Z,26.19
2022-08-17T06:56:07.318Z,26.23
2022-08-17T06:58:33.309Z,26.27
2022-08-17T07:00:59.145Z,26.33
2022-08-17T07:03:30.199Z,26.31
2022-08-17T07:05:54.325Z,26.30
2022-08-17T07:08:19.262Z,26.35
2022-08-17T07:10:46.007Z,26.27
2022-08-17T07:13:18.582Z,26.37
2022-08-17T07:15:43.662Z,26.41
2022-08-17T07:18:06.975Z,26.45
2022-08-17T07:20:31.319Z,26.45
2022-08-17T07:23:00.300Z,26.48
2022-08-17T07:25:24.011Z,26.47
2022-08-17T07:27:51.254Z,26.47
2022-08-17T07:30:17.667Z,26.48
2022-08-17T07:32:45.283Z,26.49
2022-08-17T07:35:15.515Z,26.51
2022-08-17T07:37:40.141Z,26.54
2022-08-17T07:40:15.965Z,26.54
2022-08-17T07:42:44.922Z,26.55
2022-08-17T07:45:31.245Z,26.56
2022-08-17T07:48:21.649Z,26.58
2022-08-17T07:50:49.711Z,26.60
2022-08-17T07:53:17.899Z,26.60
2022-08-17T07:55:41.918Z,26.60
2022-08-17T07:58:05.581Z,26.62
2022-08-17T08:00:32.031Z,26.63
2022-08-17T08:03:13.312Z,26.63
2022-08-17T08:05:50.178Z,26.65
2022-08-17T08:08:22.589Z,26.62
2022-08-17T08:10:47.269Z,26.66
2022-08-17T08:13:12.178Z,26.68
2022-08-17T08:15:39.562Z,26.69
2022-08-17T08:18:38.683Z,26.69
2022-08-17T08:21:09.567Z,26.73
2022-08-17T08:23:44.602Z,26.76
2022-08-17T08:26:18.561Z,26.83
2022-08-17T08:28:46.244Z,26.83
2022-08-17T08:31:13.012Z,26.86
2022-08-17T08:33:46.873Z,26.78
2022-08-17T08:37:14.974Z,26.81
2022-08-17T08:39:02.217Z,26.81
2022-08-17T08:41:31.659Z,26.80
2022-08-17T08:44:05.078Z,26.83
2022-08-17T08:46:31.140Z,26.82
2022-08-17T08:49:12.655Z,26.72
2022-08-17T08:51:42.021Z,26.80
2022-08-17T08:54:09.733Z,26.83
2022-08-17T08:56:36.484Z,26.97
2022-08-17T08:59:03.245Z,27.00
2022-08-17T09:01:29.508Z,26.94
2022-08-17T09:04:25.203Z,26.93
2022-08-17T09:06:52.074Z,26.92
2022-08-17T09:09:20.340Z,26.91
2022-08-17T09:12:01.313Z,26.95
2022-08-17T09:14:29.377Z,26.96
2022-08-17T09:16:58.996Z,26.94
2022-08-17T09:19:30.068Z,26.89
2022-08-17T09:21:55.119Z,26.83
2022-08-17T09:24:22.937Z,26.93
2022-08-17T09:26:49.322Z,26.87
2022-08-17T09:29:15.350Z,26.95
2022-08-17T09:31:48.724Z,26.85
2022-08-17T09:34:14.270Z,26.95
2022-08-17T09:36:42.532Z,26.97
2022-08-17T09:39:08.630Z,26.97
2022-08-17T09:41:35.159Z,26.98
2022-08-17T09:44:01.499Z,26.97
2022-08-17T09:46:27.750Z,27.04
2022-08-17T09:48:55.313Z,27.02
2022-08-17T09:51:21.647Z,27.08
2022-08-17T09:53:46.260Z,27.09
2022-08-17T09:56:34.970Z,27.12
2022-08-17T09:59:20.176Z,27.12
2022-08-17T10:01:45.881Z,27.06
2022-08-17T10:04:20.315Z,27.15
2022-08-17T10:06:47.744Z,27.16
2022-08-17T10:09:15.615Z,27.17
2022-08-17T10:11:58.608Z,27.18
2022-08-17T10:14:37.517Z,27.19
2022-08-17T10:17:14.788Z,27.27
2022-08-17T10:19:44.155Z,27.30
2022-08-17T10:22:35.525Z,27.26
2022-08-17T10:25:22.720Z,27.32
2022-08-17T10:27:51.704Z,27.34
2022-08-17T10:30:15.064Z,27.34
2022-08-17T10:32:40.835Z,27.32
2022-08-17T10:35:13.194Z,27.33
2022-08-17T10:38:05.015Z,27.41
2022-08-17T10:40:36.431Z,27.36
2022-08-17T10:43:01.730Z,27.33
2022-08-17T10:45:27.058Z,27.29
2022-08-17T10:48:05.030Z,27.30
2022-08-17T10:50:50.438Z,27.31
2022-08-17T10:53:35.982Z,27.29
2022-08-17T10:56:21.838Z,27.30
2022-08-17T10:58:47.420Z,27.32
2022-08-17T11:01:12.868Z,27.30
2022-08-17T11:03:36.309Z,27.30
2022-08-17T11:06:03.756Z,27.31
2022-08-17T11:08:56.639Z,27.33
2022-08-17T11:11:34.516Z,27.31
2022-08-17T11:14:07.636Z,27.31
2022-08-17T11:16:38.295Z,27.29
2022-08-17T11:19:34.685Z,27.31
2022-08-17T11:22:12.936Z,27.32
2022-08-17T11:24:36.531Z,27.43
2022-08-17T11:27:07.675Z,27.58
2022-08-17T11:29:38.841Z,27.59
2022-08-17T11:32:05.827Z,27.59
2022-08-17T11:34:29.267Z,27.53
2022-08-17T11:37:21.963Z,27.49
2022-08-17T11:40:14.269Z,27.50
2022-08-17T11:42:51.428Z,27.54
2022-08-17T11:45:43.466Z,27.69
2022-08-17T11:48:31.860Z,27.74
2022-08-17T11:51:13.304Z,27.73
2022-08-17T11:56:53.760Z,27.69
2022-08-17T11:59:58.512Z,27.62
2022-08-17T12:02:38.781Z,27.62
2022-08-17T12:05:14.120Z,27.53
2022-08-17T12:07:42.541Z,27.60
2022-08-17T12:10:06.224Z,27.61
2022-08-17T12:12:33.445Z,27.61
2022-08-17T12:15:10.160Z,27.60
2022-08-17T12:17:40.815Z,27.68
2022-08-17T12:20:17.211Z,27.57
2022-08-17T12:22:44.484Z,27.44
2022-08-17T12:25:11.090Z,27.33
2022-08-17T12:28:04.349Z,27.24
2022-08-17T12:30:21.236Z,27.42
2022-08-17T12:32:47.703Z,27.48
2022-08-17T12:35:20.598Z,27.50
2022-08-17T12:37:46.780Z,27.52
2022-08-17T12:40:20.103Z,27.53
2022-08-17T12:42:54.573Z,27.52
2022-08-17T12:45:24.967Z,27.50
2022-08-17T12:47:48.319Z,27.49
2022-08-17T12:50:28.477Z,27.53
2022-08-17T12:52:59.663Z,27.48
2022-08-17T12:55:26.285Z,27.46
2022-08-17T12:57:58.084Z,27.46
2022-08-17T13:00:28.521Z,27.46
2022-08-17T13:02:53.252Z,27.45
2022-08-17T13:05:27.714Z,27.45
2022-08-17T13:07:53.177Z,27.46
2022-08-17T13:10:22.641Z,27.45
2022-08-17T13:12:45.929Z,27.44
2022-08-17T13:15:10.218Z,27.45
2022-08-17T13:17:36.106Z,27.46
2022-08-17T13:19:59.376Z,27.48
2022-08-17T13:22:23.879Z,27.49
2022-08-17T13:24:53.174Z,27.48
2022-08-17T13:27:17.680Z,27.52
2022-08-17T13:29:41.481Z,27.50
2022-08-17T13:32:16.783Z,27.54
2022-08-17T13:35:12.390Z,27.48
2022-08-17T13:37:32.736Z,27.58
2022-08-17T13:39:56.127Z,27.60
2022-08-17T13:42:51.880Z,27.61
2022-08-17T13:45:43.546Z,27.60
2022-08-17T13:48:12.352Z,27.66
2022-08-17T13:50:40.187Z,27.63
2022-08-17T13:53:03.466Z,27.64
2022-08-17T13:55:26.771Z,27.60
2022-08-17T13:58:03.639Z,27.57
2022-08-17T14:00:32.796Z,27.60
2022-08-17T14:02:56.075Z,27.66
2022-08-17T14:05:19.527Z,27.65
2022-08-17T14:07:44.402Z,27.64
2022-08-17T14:10:11.212Z,27.69
2022-08-17T14:12:35.188Z,27.70
2022-08-17T14:14:58.924Z,27.70
2022-08-17T14:17:22.894Z,27.71
2022-08-17T14:19:46.173Z,27.66
2022-08-17T14:22:12.163Z,27.62
2022-08-17T14:24:44.668Z,27.64
2022-08-17T14:27:09.094Z,27.71
2022-08-17T14:29:33.331Z,27.71
2022-08-17T14:31:56.622Z,27.70
2022-08-17T14:34:19.937Z,27.68
2022-08-17T14:36:45.487Z,27.68
2022-08-17T14:39:11.858Z,27.69
2022-08-17T14:41:36.931Z,27.65
2022-08-17T14:44:01.530Z,27.67
2022-08-17T14:46:26.530Z,27.64
2022-08-17T14:48:57.194Z,27.59
2022-08-17T14:51:21.967Z,27.65
2022-08-17T14:53:45.869Z,27.61
2022-08-17T14:56:09.229Z,27.59
2022-08-17T14:58:33.867Z,27.59
2022-08-17T15:00:57.267Z,27.60
2022-08-17T15:03:20.660Z,27.62
2022-08-17T15:05:45.519Z,27.60
2022-08-17T15:08:08.874Z,27.63
2022-08-17T15:10:32.259Z,27.67
2022-08-17T15:12:56.220Z,27.67
2022-08-17T15:15:21.170Z,27.67
2022-08-17T15:17:54.721Z,27.68
2022-08-17T15:20:18.934Z,27.64
2022-08-17T15:22:42.365Z,27.63
2022-08-17T15:25:06.670Z,27.61
2022-08-17T15:27:32.490Z,27.60
2022-08-17T15:29:56.260Z,27.59
2022-08-17T15:32:28.133Z,27.58
2022-08-17T15:34:51.501Z,27.58
2022-08-17T15:37:14.768Z,27.59
2022-08-17T15:39:38.101Z,27.62
2022-08-17T15:42:04.645Z,27.64
2022-08-17T15:44:32.669Z,27.63
2022-08-17T15:46:59.103Z,27.67
2022-08-17T15:49:23.678Z,27.69
2022-08-17T15:51:47.007Z,27.69
2022-08-17T15:54:19.226Z,27.66
2022-08-17T15:56:46.193Z,27.67
2022-08-17T15:59:09.762Z,27.65
2022-08-17T16:02:20.012Z,27.67
2022-08-17T16:04:30.382Z,27.65
2022-08-17T16:06:55.805Z,27.66
2022-08-17T16:09:19.064Z,27.65
2022-08-17T16:11:45.981Z,27.64
2022-08-17T16:14:17.023Z,27.63
2022-08-17T16:16:41.833Z,27.63
2022-08-17T16:19:05.200Z,27.63
2022-08-17T16:21:31.313Z,27.64
2022-08-17T16:24:13.139Z,27.63
2022-08-17T16:26:37.345Z,27.62
2022-08-17T16:29:01.147Z,27.63
2022-08-17T16:31:24.674Z,27.61
2022-08-17T16:34:03.817Z,27.60
2022-08-17T16:36:31.561Z,27.60
2022-08-17T16:38:54.795Z,27.58
2022-08-17T16:41:33.347Z,27.58
2022-08-17T16:43:56.959Z,27.56
2022-08-17T16:46:20.277Z,27.55
2022-08-17T16:48:44.527Z,27.53
2022-08-17T16:51:08.463Z,27.54
2022-08-17T16:53:31.789Z,27.55
2022-08-17T16:55:56.587Z,27.53
2022-08-17T16:58:21.278Z,27.55
2022-08-17T17:00:45.277Z,27.54
2022-08-17T17:03:19.865Z,27.54
2022-08-17T17:05:57.612Z,27.53
2022-08-17T17:08:25.659Z,27.52
2022-08-17T17:10:51.292Z,27.53
2022-08-17T17:13:15.788Z,27.52
2022-08-17T17:15:55.061Z,27.52
2022-08-17T17:18:18.478Z,27.52
2022-08-17T17:20:47.601Z,27.50
2022-08-17T17:23:14.412Z,27.52
2022-08-17T17:25:40.664Z,27.47
2022-08-17T17:28:09.314Z,27.49
2022-08-17T17:30:36.369Z,27.50
2022-08-17T17:33:04.674Z,27.47
2022-08-17T17:35:31.774Z,27.47
2022-08-17T17:37:57.389Z,27.43
2022-08-17T17:40:23.153Z,27.46
2022-08-17T17:42:46.745Z,27.49
2022-08-17T17:45:16.979Z,27.39
2022-08-17T17:47:40.339Z,27.51
2022-08-17T17:50:06.292Z,27.48
2022-08-17T17:52:36.247Z,27.40
2022-08-17T17:55:05.414Z,27.40
2022-08-17T17:57:34.823Z,27.29
2022-08-17T18:00:01.922Z,27.33
2022-08-17T18:02:51.485Z,27.36
2022-08-17T18:05:23.182Z,27.30
2022-08-17T18:07:50.631Z,27.35
2022-08-17T18:10:19.716Z,27.38
2022-08-17T18:12:55.322Z,27.42
2022-08-17T18:15:23.441Z,27.44
2022-08-17T18:18:02.138Z,27.44
2022-08-17T18:20:36.458Z,27.32
2022-08-17T18:23:06.944Z,27.26
2022-08-17T18:25:48.926Z,27.25
2022-08-17T18:28:23.037Z,27.24
2022-08-17T18:30:48.473Z,27.22
2022-08-17T18:33:22.969Z,27.29
2022-08-17T18:35:58.902Z,27.25
2022-08-17T18:38:29.917Z,27.20
2022-08-17T18:41:06.050Z,27.19
2022-08-17T18:43:44.181Z,27.14
2022-08-17T18:46:29.888Z,27.03
2022-08-17T18:48:54.948Z,26.97
2022-08-17T18:51:37.266Z,26.97
2022-08-17T18:54:08.019Z,27.08
2022-08-17T18:56:32.024Z,27.10
2022-08-17T18:59:02.104Z,27.10
2022-08-17T19:01:46.904Z,26.98
2022-08-17T19:04:11.979Z,26.88
2022-08-17T19:06:36.736Z,26.96
2022-08-17T19:09:00.719Z,26.99
2022-08-17T19:11:26.382Z,27.03
2022-08-17T19:13:54.271Z,27.06
2022-08-17T19:16:20.117Z,27.08
2022-08-17T19:18:45.888Z,27.14
2022-08-17T19:21:11.161Z,27.10
2022-08-17T19:23:38.884Z,27.14
2022-08-17T19:26:51.209Z,27.01
2022-08-17T19:29:08.199Z,26.83
2022-08-17T19:31:33.021Z,26.91
2022-08-17T19:33:56.378Z,26.97
2022-08-17T19:36:34.559Z,26.97
2022-08-17T19:39:03.426Z,27.06
2022-08-17T19:41:29.366Z,26.94
2022-08-17T19:44:07.101Z,26.94
2022-08-17T19:46:35.780Z,27.07
2022-08-17T19:49:03.850Z,26.93
2022-08-17T19:51:30.439Z,26.99
2022-08-17T19:54:06.039Z,27.01
2022-08-17T19:56:34.918Z,26.95
2022-08-17T19:59:01.208Z,26.84
2022-08-17T20:01:34.418Z,26.83
2022-08-17T20:03:59.335Z,27.01
2022-08-17T20:06:22.637Z,26.91
2022-08-17T20:08:49.991Z,26.98
2022-08-17T20:11:16.698Z,26.86
2022-08-17T20:13:42.950Z,26.85
2022-08-17T20:16:06.496Z,26.97
2022-08-17T20:18:38.064Z,26.99
2022-08-17T20:21:20.257Z,26.98
2022-08-17T20:23:50.509Z,26.87
2022-08-17T20:26:19.521Z,26.89
2022-08-17T20:29:10.554Z,26.75
2022-08-17T20:31:42.646Z,26.61
2022-08-17T20:34:37.061Z,26.67
2022-08-17T20:37:02.722Z,26.55
2022-08-17T20:39:31.727Z,26.64
2022-08-17T20:42:09.966Z,26.61
2022-08-17T20:44:35.140Z,26.60
2022-08-17T20:46:59.611Z,26.67
2022-08-17T20:49:27.086Z,26.62
2022-08-17T20:52:01.779Z,26.66
2022-08-17T20:54:44.315Z,26.61
2022-08-17T20:57:14.039Z,26.66
2022-08-17T21:00:04.408Z,26.51
2022-08-17T21:02:28.999Z,26.46
2022-08-17T21:05:30.217Z,26.48
2022-08-17T21:07:55.904Z,26.49
2022-08-17T21:10:20.388Z,26.41
2022-08-17T21:12:44.739Z,26.46
2022-08-17T21:15:09.600Z,26.38
2022-08-17T21:17:44.739Z,26.34
2022-08-17T21:20:14.575Z,26.44
2022-08-17T21:22:44.185Z,26.42
2022-08-17T21:25:14.816Z,26.48
2022-08-17T21:27:42.102Z,26.49
2022-08-17T21:30:32.284Z,26.45
2022-08-17T21:33:20.262Z,26.46
2022-08-17T21:35:48.525Z,26.41
2022-08-17T21:38:13.858Z,26.22
2022-08-17T21:40:37.193Z,26.17
2022-08-17T21:43:08.418Z,26.20
2022-08-17T21:45:35.588Z,26.22
2022-08-17T21:48:11.067Z,26.18
2022-08-17T21:50:34.306Z,26.15
2022-08-17T21:52:57.673Z,26.28
2022-08-17T21:55:23.046Z,26.43
2022-08-17T21:58:13.540Z,26.60
2022-08-17T22:00:32.706Z,26.61
2022-08-17T22:02:57.189Z,26.42
2022-08-17T22:05:28.486Z,26.31
2022-08-17T22:07:52.720Z,26.28
2022-08-17T22:10:30.856Z,26.33
2022-08-17T22:13:03.425Z,26.33
2022-08-17T22:15:26.718Z,26.28
2022-08-17T22:17:51.422Z,26.30
2022-08-17T22:20:16.841Z,26.26
2022-08-17T22:22:54.953Z,26.29
2022-08-17T22:25:21.609Z,26.24
2022-08-17T22:27:46.729Z,26.21
2022-08-17T22:30:17.723Z,26.12
2022-08-17T22:32:42.793Z,26.23
2022-08-17T22:35:26.468Z,26.14
2022-08-17T22:37:49.914Z,26.20
2022-08-17T22:40:13.384Z,26.24
2022-08-17T22:42:36.969Z,26.40
2022-08-17T22:45:00.224Z,26.39
2022-08-17T22:47:30.508Z,26.44
2022-08-17T22:49:57.484Z,26.47
2022-08-17T22:52:32.560Z,26.23
2022-08-17T22:55:20.338Z,26.12
2022-08-17T22:58:04.979Z,26.25
2022-08-17T23:00:29.103Z,26.09
2022-08-17T23:03:15.967Z,26.12
2022-08-17T23:05:41.978Z,26.08
2022-08-17T23:08:06.760Z,26.17
2022-08-17T23:10:30.197Z,26.05
2022-08-17T23:12:53.465Z,26.04
2022-08-17T23:15:18.616Z,26.13
2022-08-17T23:17:42.077Z,25.91
2022-08-17T23:20:08.322Z,26.00
2022-08-17T23:22:31.755Z,26.09
2022-08-17T23:24:58.591Z,26.00
2022-08-17T23:27:22.208Z,25.94
2022-08-17T23:29:47.121Z,25.94
2022-08-17T23:32:11.715Z,25.93
2022-08-17T23:34:35.186Z,25.84
2022-08-17T23:36:58.479Z,25.84
2022-08-17T23:39:24.651Z,26.00
2022-08-17T23:41:53.482Z,25.95
2022-08-17T23:44:16.753Z,25.99
2022-08-17T23:46:40.716Z,25.99
2022-08-17T23:49:03.934Z,25.96
2022-08-17T23:51:28.973Z,25.80
2022-08-17T23:53:53.832Z,25.94
2022-08-17T23:56:21.176Z,26.02
2022-08-17T23:58:45.967Z,25.99
